Oak Ridge, MI

6:44 AM EST on December 07, 2016 (GMT -0500)
Charlotte Beach | | Change Station
Active Advisory: Lake Effect Snow Advisory

Elev 571 ft 46.31 °N, 84.22 °W | Updated 5 minutes ago

Light Snow
Light Snow
27.4 °F
Feels Like 27 °F
N
0.0
Wind Variable Wind from NNW
Gusts 4.0 mph

Today
High -- | Low -- °F
--% Chance of Precip.
Yesterday
High -- | Low -- °F
Precip. -- in
Pressure 29.78 in
Visibility 9.0 miles
Clouds Overcast 2400 ft
Windchill 27 °F
Dew Point 22 °F
Humidity 79%
Rainfall 0.00 in
Snow Depth Not available.
8:06 AM 4:50 PM
First Quarter, 51% visible
METAR KCIU 070956Z AUTO 27009G15KT 9SM -SN OVC024 M03/M07 A2970 RMK AO2 SNB00 SLP084 P0000 T10331067 FZRANO
Pressure 29.78 in
Visibility 9.0 miles
Clouds Overcast 2400 ft
Windchill 27 °F
Dew Point 22 °F
Humidity 79%
Rainfall 0.00 in
Snow Depth Not available.
8:06 AM 4:50 PM
First Quarter, 51% visible
METAR KCIU 070956Z AUTO 27009G15KT 9SM -SN OVC024 M03/M07 A2970 RMK AO2 SNB00 SLP084 P0000 T10331067 FZRANO

10-Day Weather Forecast

Almanac

Astronomy

Dec. 07, 2016 Rise Set
Actual Time
Civil Twilight
Nautical Twilight
Astronomical Twilight
Moon
Length of Visible Light
Length of Day
Tomorrow will be .
, % of the Moon is Illuminated

Today's Extremes

State Highs State Lows

Community

WunderPhotos

Upload Photos

1,956,111 photos uploaded!

WunderBlog® & News

Nearby

Air Quality

  Air Quality AQ Index Pollutant
Not available.

Snow Depth

Station Depth Elevation

Earthquake Activity

City Distance Mag. Time & Date
Minimum magnitude displayed is 2.5.

Coastal Water Temperatures

Place Temperature

Stations

Nearby Weather Stations

Station Location Temp. Windchill Dew Point Humidity Wind Precip. Elev Updated Type
                   

Watches & Warnings

Lake Effect Snow Advisory
Issued: 3:50 AM EST Dec. 7, 2016 – National Weather Service

... Lake effect Snow Advisory in effect from midnight tonight to
3 PM EST Friday...

The National Weather Service in Gaylord has issued a lake effect
Snow Advisory... which is in effect from midnight tonight to 3 PM
EST Friday.

* Expect snow to intensify after midnight tonight with
accumulating snowfall continuing through Friday.

* The heaviest snowfall rates are expected to occur late tonight
through Thursday morning.

* Total snow accumulations of 2 to 5 inches are expected with
locally higher amounts.

* Look for reduced visibilities at times due to blowing snow.

* Plan on slippery Road conditions... including during the
morning and afternoon commutes on Thursday.

Precautionary/preparedness actions...

A lake effect Snow Advisory Means Lake-effect snow is forecast
that will make travel difficult in some areas. Use caution when
traveling. For the latest Road conditions... go to the mdot
website at Michigan.Gov.


Mek